sensor_id;sensor_type;location;lat;lon;timestamp;temperature;humidity
12386;DHT22;6257;57.634;18.310;2024-01-10T00:00:20;1.00;99.90
12386;DHT22;6257;57.634;18.310;2024-01-10T00:02:47;1.10;99.90
12386;DHT22;6257;57.634;18.310;2024-01-10T00:05:14;1.00;99.90
12386;DHT22;6257;57.634;18.310;2024-01-10T00:07:41;0.90;99.90
12386;DHT22;6257;57.634;18.310;2024-01-10T00:10:08;0.90;99.90
12386;DHT22;6257;57.634;18.310;2024-01-10T00:12:36;0.80;99.90
12386;DHT22;6257;57.634;18.310;2024-01-10T00:15:05;0.80;99.90
12386;DHT22;6257;57.634;18.310;2024-01-10T00:17:32;0.80;99.90
12386;DHT22;6257;57.634;18.310;2024-01-10T00:19:59;0.70;99.90
12386;DHT22;6257;57.634;18.310;2024-01-10T00:22:26;0.90;99.90
12386;DHT22;6257;57.634;18.310;2024-01-10T00:24:53;0.80;99.90
12386;DHT22;6257;57.634;18.310;2024-01-10T00:27:20;0.50;99.90
12386;DHT22;6257;57.634;18.310;2024-01-10T00:29:47;0.40;99.90
12386;DHT22;6257;57.634;18.310;2024-01-10T00:32:15;0.40;99.90
12386;DHT22;6257;57.634;18.310;2024-01-10T00:34:42;0.30;99.90
12386;DHT22;6257;57.634;18.310;2024-01-10T00:37:09;0.20;99.90
12386;DHT22;6257;57.634;18.310;2024-01-10T00:39:36;0.80;99.90
12386;DHT22;6257;57.634;18.310;2024-01-10T00:42:03;1.00;99.90
12386;DHT22;6257;57.634;18.310;2024-01-10T00:44:30;0.70;99.90
12386;DHT22;6257;57.634;18.310;2024-01-10T00:46:57;0.90;99.90
12386;DHT22;6257;57.634;18.310;2024-01-10T00:51:53;0.90;99.90
12386;DHT22;6257;57.634;18.310;2024-01-10T00:54:20;0.90;99.90
12386;DHT22;6257;57.634;18.310;2024-01-10T00:56:47;1.00;99.90
12386;DHT22;6257;57.634;18.310;2024-01-10T00:59:15;1.10;99.90
12386;DHT22;6257;57.634;18.310;2024-01-10T01:01:42;1.10;99.90
12386;DHT22;6257;57.634;18.310;2024-01-10T01:04:09;1.10;99.90
12386;DHT22;6257;57.634;18.310;2024-01-10T01:06:38;1.10;99.90
12386;DHT22;6257;57.634;18.310;2024-01-10T01:09:05;1.10;99.90
12386;DHT22;6257;57.634;18.310;2024-01-10T01:11:32;1.10;99.90
12386;DHT22;6257;57.634;18.310;2024-01-10T01:13:58;1.20;99.90
12386;DHT22;6257;57.634;18.310;2024-01-10T01:16:25;1.30;99.90
12386;DHT22;6257;57.634;18.310;2024-01-10T01:18:52;1.30;99.90
12386;DHT22;6257;57.634;18.310;2024-01-10T01:21:19;1.40;99.90
12386;DHT22;6257;57.634;18.310;2024-01-10T01:23:48;1.50;99.90
12386;DHT22;6257;57.634;18.310;2024-01-10T01:26:15;1.30;99.90
12386;DHT22;6257;57.634;18.310;2024-01-10T01:28:42;1.40;99.90
12386;DHT22;6257;57.634;18.310;2024-01-10T01:31:09;1.50;99.90
12386;DHT22;6257;57.634;18.310;2024-01-10T01:33:35;1.60;99.90
12386;DHT22;6257;57.634;18.310;2024-01-10T01:36:05;1.50;99.90
12386;DHT22;6257;57.634;18.310;2024-01-10T01:38:32;1.50;99.90
12386;DHT22;6257;57.634;18.310;2024-01-10T01:43:28;1.40;99.90
12386;DHT22;6257;57.634;18.310;2024-01-10T01:45:55;1.30;99.90
12386;DHT22;6257;57.634;18.310;2024-01-10T01:48:24;1.20;99.90
12386;DHT22;6257;57.634;18.310;2024-01-10T01:50:54;1.10;99.90
12386;DHT22;6257;57.634;18.310;2024-01-10T01:53:23;1.00;99.90
12386;DHT22;6257;57.634;18.310;2024-01-10T01:55:50;1.00;99.90
12386;DHT22;6257;57.634;18.310;2024-01-10T01:58:19;0.90;99.90
12386;DHT22;6257;57.634;18.310;2024-01-10T02:00:47;1.00;99.90
12386;DHT22;6257;57.634;18.310;2024-01-10T02:03:14;1.00;99.90
12386;DHT22;6257;57.634;18.310;2024-01-10T02:05:42;1.10;99.90
12386;DHT22;6257;57.634;18.310;2024-01-10T02:08:09;1.00;99.90
12386;DHT22;6257;57.634;18.310;2024-01-10T02:10:36;1.00;99.90
12386;DHT22;6257;57.634;18.310;2024-01-10T02:13:03;0.80;99.90
12386;DHT22;6257;57.634;18.310;2024-01-10T02:15:31;0.80;99.90
12386;DHT22;6257;57.634;18.310;2024-01-10T02:17:58;0.70;99.90
12386;DHT22;6257;57.634;18.310;2024-01-10T02:20:25;0.90;99.90
12386;DHT22;6257;57.634;18.310;2024-01-10T02:22:52;1.00;99.90
12386;DHT22;6257;57.634;18.310;2024-01-10T02:25:21;1.10;99.90
12386;DHT22;6257;57.634;18.310;2024-01-10T02:27:48;1.10;99.90
12386;DHT22;6257;57.634;18.310;2024-01-10T02:30:15;1.30;99.90
12386;DHT22;6257;57.634;18.310;2024-01-10T02:32:42;1.50;99.90
12386;DHT22;6257;57.634;18.310;2024-01-10T02:35:10;1.60;99.90
12386;DHT22;6257;57.634;18.310;2024-01-10T02:37:36;1.70;99.90
12386;DHT22;6257;57.634;18.310;2024-01-10T02:40:04;1.60;99.90
12386;DHT22;6257;57.634;18.310;2024-01-10T02:42:34;1.70;99.90
12386;DHT22;6257;57.634;18.310;2024-01-10T02:45:02;1.70;99.90
12386;DHT22;6257;57.634;18.310;2024-01-10T02:47:29;1.50;99.90
12386;DHT22;6257;57.634;18.310;2024-01-10T02:49:55;1.50;99.90
12386;DHT22;6257;57.634;18.310;2024-01-10T02:52:22;1.50;99.90
12386;DHT22;6257;57.634;18.310;2024-01-10T02:54:49;1.50;99.90
12386;DHT22;6257;57.634;18.310;2024-01-10T02:57:16;1.40;99.90
12386;DHT22;6257;57.634;18.310;2024-01-10T02:59:45;1.50;99.90
12386;DHT22;6257;57.634;18.310;2024-01-10T03:02:12;1.40;99.90
12386;DHT22;6257;57.634;18.310;2024-01-10T03:04:39;1.50;99.90
12386;DHT22;6257;57.634;18.310;2024-01-10T03:07:06;1.50;99.90
12386;DHT22;6257;57.634;18.310;2024-01-10T03:09:33;1.60;99.90
12386;DHT22;6257;57.634;18.310;2024-01-10T03:12:00;1.70;99.90
12386;DHT22;6257;57.634;18.310;2024-01-10T03:14:27;1.70;99.90
12386;DHT22;6257;57.634;18.310;2024-01-10T03:16:55;1.70;99.90
12386;DHT22;6257;57.634;18.310;2024-01-10T03:19:22;1.70;99.90
12386;DHT22;6257;57.634;18.310;2024-01-10T03:21:49;1.70;99.90
12386;DHT22;6257;57.634;18.310;2024-01-10T03:24:16;1.80;99.90
12386;DHT22;6257;57.634;18.310;2024-01-10T03:26:43;1.80;99.90
12386;DHT22;6257;57.634;18.310;2024-01-10T03:29:10;1.80;99.90
12386;DHT22;6257;57.634;18.310;2024-01-10T03:31:37;1.80;99.90
12386;DHT22;6257;57.634;18.310;2024-01-10T03:36:33;1.90;99.90
12386;DHT22;6257;57.634;18.310;2024-01-10T03:39:00;1.90;99.90
12386;DHT22;6257;57.634;18.310;2024-01-10T03:41:27;1.90;99.90
12386;DHT22;6257;57.634;18.310;2024-01-10T03:43:54;1.90;99.90
12386;DHT22;6257;57.634;18.310;2024-01-10T03:46:21;1.90;99.90
12386;DHT22;6257;57.634;18.310;2024-01-10T03:48:48;1.90;99.90
12386;DHT22;6257;57.634;18.310;2024-01-10T03:51:17;1.90;99.90
12386;DHT22;6257;57.634;18.310;2024-01-10T03:53:44;1.90;99.90
12386;DHT22;6257;57.634;18.310;2024-01-10T03:56:12;1.90;99.90
12386;DHT22;6257;57.634;18.310;2024-01-10T03:58:39;1.90;99.90
12386;DHT22;6257;57.634;18.310;2024-01-10T04:01:06;1.80;99.90
12386;DHT22;6257;57.634;18.310;2024-01-10T04:03:34;1.80;99.90
12386;DHT22;6257;57.634;18.310;2024-01-10T04:06:02;1.80;99.90
12386;DHT22;6257;57.634;18.310;2024-01-10T04:08:30;1.80;99.90
12386;DHT22;6257;57.634;18.310;2024-01-10T04:10:57;1.80;99.90
12386;DHT22;6257;57.634;18.310;2024-01-10T04:13:24;1.80;99.90
12386;DHT22;6257;57.634;18.310;2024-01-10T04:15:52;1.80;99.90
12386;DHT22;6257;57.634;18.310;2024-01-10T04:18:19;1.80;99.90
12386;DHT22;6257;57.634;18.310;2024-01-10T04:20:47;1.80;99.90
12386;DHT22;6257;57.634;18.310;2024-01-10T04:23:14;1.60;99.90
12386;DHT22;6257;57.634;18.310;2024-01-10T04:28:09;1.60;99.90
12386;DHT22;6257;57.634;18.310;2024-01-10T04:30:36;1.60;99.90
12386;DHT22;6257;57.634;18.310;2024-01-10T04:33:04;1.60;99.90
12386;DHT22;6257;57.634;18.310;2024-01-10T04:35:31;1.60;99.90
12386;DHT22;6257;57.634;18.310;2024-01-10T04:37:58;1.60;99.90
12386;DHT22;6257;57.634;18.310;2024-01-10T04:40:25;1.40;99.90
12386;DHT22;6257;57.634;18.310;2024-01-10T04:42:54;1.20;99.90
12386;DHT22;6257;57.634;18.310;2024-01-10T04:45:21;1.20;99.90
12386;DHT22;6257;57.634;18.310;2024-01-10T04:47:48;1.40;99.90
12386;DHT22;6257;57.634;18.310;2024-01-10T04:50:15;1.60;99.90
12386;DHT22;6257;57.634;18.310;2024-01-10T04:52:42;1.60;99.90
12386;DHT22;6257;57.634;18.310;2024-01-10T04:55:09;1.70;99.90
12386;DHT22;6257;57.634;18.310;2024-01-10T04:57:36;1.60;99.90
12386;DHT22;6257;57.634;18.310;2024-01-10T05:00:06;1.60;99.90
12386;DHT22;6257;57.634;18.310;2024-01-10T05:02:33;1.50;99.90
12386;DHT22;6257;57.634;18.310;2024-01-10T05:05:00;1.40;99.90
12386;DHT22;6257;57.634;18.310;2024-01-10T05:07:29;1.40;99.90
12386;DHT22;6257;57.634;18.310;2024-01-10T05:09:56;1.50;99.90
12386;DHT22;6257;57.634;18.310;2024-01-10T05:12:23;1.40;99.90
12386;DHT22;6257;57.634;18.310;2024-01-10T05:14:50;1.50;99.90
12386;DHT22;6257;57.634;18.310;2024-01-10T05:17:19;1.50;99.90
12386;DHT22;6257;57.634;18.310;2024-01-10T05:19:46;1.50;99.90
12386;DHT22;6257;57.634;18.310;2024-01-10T05:22:13;1.30;99.90
12386;DHT22;6257;57.634;18.310;2024-01-10T05:24:40;1.10;99.90
12386;DHT22;6257;57.634;18.310;2024-01-10T05:27:07;1.00;99.90
12386;DHT22;6257;57.634;18.310;2024-01-10T05:29:34;1.00;99.90
12386;DHT22;6257;57.634;18.310;2024-01-10T05:32:01;1.20;99.90
12386;DHT22;6257;57.634;18.310;2024-01-10T05:34:29;1.30;99.90
12386;DHT22;6257;57.634;18.310;2024-01-10T05:36:56;1.30;99.90
12386;DHT22;6257;57.634;18.310;2024-01-10T05:39:23;1.30;99.90
12386;DHT22;6257;57.634;18.310;2024-01-10T05:41:50;1.40;99.90
12386;DHT22;6257;57.634;18.310;2024-01-10T05:44:17;1.50;99.90
12386;DHT22;6257;57.634;18.310;2024-01-10T05:46:44;1.40;99.90
12386;DHT22;6257;57.634;18.310;2024-01-10T05:49:11;1.40;99.90
12386;DHT22;6257;57.634;18.310;2024-01-10T05:51:39;1.40;99.90
12386;DHT22;6257;57.634;18.310;2024-01-10T05:54:06;1.30;99.90
12386;DHT22;6257;57.634;18.310;2024-01-10T05:56:33;1.30;99.90
12386;DHT22;6257;57.634;18.310;2024-01-10T05:59:00;1.20;99.90
12386;DHT22;6257;57.634;18.310;2024-01-10T06:01:28;1.40;99.90
12386;DHT22;6257;57.634;18.310;2024-01-10T06:03:55;1.50;99.90
12386;DHT22;6257;57.634;18.310;2024-01-10T06:06:22;1.60;99.90
12386;DHT22;6257;57.634;18.310;2024-01-10T06:08:51;1.60;99.90
12386;DHT22;6257;57.634;18.310;2024-01-10T06:11:19;1.60;99.90
12386;DHT22;6257;57.634;18.310;2024-01-10T06:13:46;1.50;99.90
12386;DHT22;6257;57.634;18.310;2024-01-10T06:16:13;1.40;99.90
12386;DHT22;6257;57.634;18.310;2024-01-10T06:18:40;1.50;99.90
12386;DHT22;6257;57.634;18.310;2024-01-10T06:21:07;1.50;99.90
12386;DHT22;6257;57.634;18.310;2024-01-10T06:23:34;1.50;99.90
12386;DHT22;6257;57.634;18.310;2024-01-10T06:26:03;1.60;99.90
12386;DHT22;6257;57.634;18.310;2024-01-10T06:28:30;1.60;99.90
12386;DHT22;6257;57.634;18.310;2024-01-10T06:30:57;1.50;99.90
12386;DHT22;6257;57.634;18.310;2024-01-10T06:33:24;1.50;99.90
12386;DHT22;6257;57.634;18.310;2024-01-10T06:35:51;1.50;99.90
12386;DHT22;6257;57.634;18.310;2024-01-10T06:38:18;1.40;99.90
12386;DHT22;6257;57.634;18.310;2024-01-10T06:40:48;1.40;99.90
12386;DHT22;6257;57.634;18.310;2024-01-10T06:43:17;1.40;99.90
12386;DHT22;6257;57.634;18.310;2024-01-10T06:45:44;1.40;99.90
12386;DHT22;6257;57.634;18.310;2024-01-10T06:48:12;1.40;99.90
12386;DHT22;6257;57.634;18.310;2024-01-10T06:50:39;1.50;99.90
12386;DHT22;6257;57.634;18.310;2024-01-10T06:53:06;1.40;99.90
12386;DHT22;6257;57.634;18.310;2024-01-10T06:55:34;1.40;99.90
12386;DHT22;6257;57.634;18.310;2024-01-10T06:58:01;1.40;99.90
12386;DHT22;6257;57.634;18.310;2024-01-10T07:00:30;1.40;99.90
12386;DHT22;6257;57.634;18.310;2024-01-10T07:02:57;1.50;99.90
12386;DHT22;6257;57.634;18.310;2024-01-10T07:05:27;1.50;99.90
12386;DHT22;6257;57.634;18.310;2024-01-10T07:07:57;1.50;99.90
12386;DHT22;6257;57.634;18.310;2024-01-10T07:10:24;1.50;99.90
12386;DHT22;6257;57.634;18.310;2024-01-10T07:12:53;1.50;99.90
12386;DHT22;6257;57.634;18.310;2024-01-10T07:27:40;1.70;99.90
12386;DHT22;6257;57.634;18.310;2024-01-10T07:30:07;1.70;99.90
12386;DHT22;6257;57.634;18.310;2024-01-10T07:32:39;1.60;99.90
12386;DHT22;6257;57.634;18.310;2024-01-10T07:35:09;1.50;99.90
12386;DHT22;6257;57.634;18.310;2024-01-10T07:37:36;1.40;99.90
12386;DHT22;6257;57.634;18.310;2024-01-10T07:40:04;1.10;99.90
12386;DHT22;6257;57.634;18.310;2024-01-10T07:42:32;1.00;99.90
12386;DHT22;6257;57.634;18.310;2024-01-10T07:45:00;1.10;99.90
12386;DHT22;6257;57.634;18.310;2024-01-10T07:47:29;1.30;99.90
12386;DHT22;6257;57.634;18.310;2024-01-10T07:49:56;1.50;99.90
12386;DHT22;6257;57.634;18.310;2024-01-10T07:52:25;1.50;99.90
12386;DHT22;6257;57.634;18.310;2024-01-10T07:54:52;1.50;99.90
12386;DHT22;6257;57.634;18.310;2024-01-10T07:57:19;1.70;99.90
12386;DHT22;6257;57.634;18.310;2024-01-10T07:59:46;1.70;99.90
12386;DHT22;6257;57.634;18.310;2024-01-10T08:02:13;1.70;99.90
12386;DHT22;6257;57.634;18.310;2024-01-10T08:04:40;1.70;99.90
12386;DHT22;6257;57.634;18.310;2024-01-10T08:07:07;1.60;99.90
12386;DHT22;6257;57.634;18.310;2024-01-10T08:09:36;1.50;99.90
12386;DHT22;6257;57.634;18.310;2024-01-10T08:12:04;1.60;99.90
12386;DHT22;6257;57.634;18.310;2024-01-10T08:14:31;1.60;99.90
12386;DHT22;6257;57.634;18.310;2024-01-10T08:19:33;1.70;99.90
12386;DHT22;6257;57.634;18.310;2024-01-10T08:22:01;1.80;99.90
12386;DHT22;6257;57.634;18.310;2024-01-10T08:24:28;1.80;99.90
12386;DHT22;6257;57.634;18.310;2024-01-10T08:26:57;1.90;99.90
12386;DHT22;6257;57.634;18.310;2024-01-10T08:29:24;1.90;99.90
12386;DHT22;6257;57.634;18.310;2024-01-10T08:31:56;1.90;99.90
12386;DHT22;6257;57.634;18.310;2024-01-10T08:34:23;1.90;99.90
12386;DHT22;6257;57.634;18.310;2024-01-10T08:36:50;1.90;99.90
12386;DHT22;6257;57.634;18.310;2024-01-10T08:39:18;1.90;99.90
12386;DHT22;6257;57.634;18.310;2024-01-10T08:41:45;1.90;99.90
12386;DHT22;6257;57.634;18.310;2024-01-10T08:44:13;1.90;99.90
12386;DHT22;6257;57.634;18.310;2024-01-10T08:46:41;1.90;99.90
12386;DHT22;6257;57.634;18.310;2024-01-10T08:49:08;1.90;99.90
12386;DHT22;6257;57.634;18.310;2024-01-10T08:51:35;1.90;99.90
12386;DHT22;6257;57.634;18.310;2024-01-10T08:54:02;1.90;99.90
12386;DHT22;6257;57.634;18.310;2024-01-10T08:56:30;1.90;99.90
12386;DHT22;6257;57.634;18.310;2024-01-10T08:58:57;1.90;99.90
12386;DHT22;6257;57.634;18.310;2024-01-10T09:01:25;1.90;99.90
12386;DHT22;6257;57.634;18.310;2024-01-10T09:03:52;1.90;99.90
12386;DHT22;6257;57.634;18.310;2024-01-10T09:06:20;1.90;99.90
12386;DHT22;6257;57.634;18.310;2024-01-10T09:08:47;1.90;99.90
12386;DHT22;6257;57.634;18.310;2024-01-10T09:11:14;1.90;99.90
12386;DHT22;6257;57.634;18.310;2024-01-10T09:13:41;1.80;99.90
12386;DHT22;6257;57.634;18.310;2024-01-10T09:16:08;1.90;99.90
12386;DHT22;6257;57.634;18.310;2024-01-10T09:18:36;1.90;99.90
12386;DHT22;6257;57.634;18.310;2024-01-10T09:21:04;1.80;99.90
12386;DHT22;6257;57.634;18.310;2024-01-10T09:23:31;1.90;99.90
12386;DHT22;6257;57.634;18.310;2024-01-10T09:25:58;1.90;99.90
12386;DHT22;6257;57.634;18.310;2024-01-10T09:28:25;1.90;99.90
12386;DHT22;6257;57.634;18.310;2024-01-10T09:30:52;1.90;99.90
12386;DHT22;6257;57.634;18.310;2024-01-10T09:33:19;1.80;99.90
12386;DHT22;6257;57.634;18.310;2024-01-10T09:35:49;1.80;99.90
12386;DHT22;6257;57.634;18.310;2024-01-10T09:38:16;1.80;99.90
12386;DHT22;6257;57.634;18.310;2024-01-10T09:40:43;1.70;99.90
12386;DHT22;6257;57.634;18.310;2024-01-10T09:43:12;1.80;99.90
12386;DHT22;6257;57.634;18.310;2024-01-10T09:45:43;1.80;99.90
12386;DHT22;6257;57.634;18.310;2024-01-10T09:48:14;1.80;99.90
12386;DHT22;6257;57.634;18.310;2024-01-10T09:50:41;1.90;99.90
12386;DHT22;6257;57.634;18.310;2024-01-10T09:53:16;1.90;99.90
12386;DHT22;6257;57.634;18.310;2024-01-10T09:55:49;1.90;99.90
12386;DHT22;6257;57.634;18.310;2024-01-10T09:58:16;1.80;99.90
12386;DHT22;6257;57.634;18.310;2024-01-10T10:00:44;1.80;99.90
12386;DHT22;6257;57.634;18.310;2024-01-10T10:03:11;1.70;99.90
12386;DHT22;6257;57.634;18.310;2024-01-10T10:05:40;1.70;99.90
12386;DHT22;6257;57.634;18.310;2024-01-10T10:08:11;1.70;99.90
12386;DHT22;6257;57.634;18.310;2024-01-10T10:10:38;1.80;99.90
12386;DHT22;6257;57.634;18.310;2024-01-10T10:13:09;1.90;99.90
12386;DHT22;6257;57.634;18.310;2024-01-10T10:15:37;1.90;99.90
12386;DHT22;6257;57.634;18.310;2024-01-10T10:18:04;1.90;99.90
12386;DHT22;6257;57.634;18.310;2024-01-10T10:20:31;2.00;99.90
12386;DHT22;6257;57.634;18.310;2024-01-10T10:23:02;1.90;99.90
12386;DHT22;6257;57.634;18.310;2024-01-10T10:25:32;2.00;99.90
12386;DHT22;6257;57.634;18.310;2024-01-10T10:28:00;2.00;99.90
12386;DHT22;6257;57.634;18.310;2024-01-10T10:30:27;2.00;99.90
12386;DHT22;6257;57.634;18.310;2024-01-10T10:32:55;2.00;99.90
12386;DHT22;6257;57.634;18.310;2024-01-10T10:35:22;2.00;99.90
12386;DHT22;6257;57.634;18.310;2024-01-10T10:37:50;2.10;99.90
12386;DHT22;6257;57.634;18.310;2024-01-10T10:40:17;2.20;99.90
12386;DHT22;6257;57.634;18.310;2024-01-10T10:42:48;2.10;99.90
12386;DHT22;6257;57.634;18.310;2024-01-10T10:45:16;2.10;99.90
12386;DHT22;6257;57.634;18.310;2024-01-10T10:47:44;2.10;99.90
12386;DHT22;6257;57.634;18.310;2024-01-10T10:50:20;2.00;99.90
12386;DHT22;6257;57.634;18.310;2024-01-10T10:52:49;2.10;99.90
12386;DHT22;6257;57.634;18.310;2024-01-10T10:55:17;2.10;99.90
12386;DHT22;6257;57.634;18.310;2024-01-10T10:57:47;2.10;99.90
12386;DHT22;6257;57.634;18.310;2024-01-10T11:00:17;2.10;99.90
12386;DHT22;6257;57.634;18.310;2024-01-10T11:02:44;2.20;99.90
12386;DHT22;6257;57.634;18.310;2024-01-10T11:05:12;2.20;99.90
12386;DHT22;6257;57.634;18.310;2024-01-10T11:07:41;2.20;99.90
12386;DHT22;6257;57.634;18.310;2024-01-10T11:10:13;2.20;99.90
12386;DHT22;6257;57.634;18.310;2024-01-10T11:13:13;2.20;99.90
12386;DHT22;6257;57.634;18.310;2024-01-10T11:16:15;2.20;99.90
12386;DHT22;6257;57.634;18.310;2024-01-10T11:18:59;2.30;99.90
12386;DHT22;6257;57.634;18.310;2024-01-10T11:21:38;2.20;99.90
12386;DHT22;6257;57.634;18.310;2024-01-10T11:24:08;2.20;99.90
12386;DHT22;6257;57.634;18.310;2024-01-10T11:26:37;2.20;99.90
12386;DHT22;6257;57.634;18.310;2024-01-10T11:29:06;2.30;99.90
12386;DHT22;6257;57.634;18.310;2024-01-10T11:31:33;2.30;99.90
12386;DHT22;6257;57.634;18.310;2024-01-10T11:34:01;2.30;99.90
12386;DHT22;6257;57.634;18.310;2024-01-10T11:36:28;2.30;99.90
12386;DHT22;6257;57.634;18.310;2024-01-10T11:38:59;2.30;99.90
12386;DHT22;6257;57.634;18.310;2024-01-10T11:41:30;2.30;99.90
12386;DHT22;6257;57.634;18.310;2024-01-10T11:44:29;2.30;99.90
12386;DHT22;6257;57.634;18.310;2024-01-10T11:46:58;2.20;99.90
12386;DHT22;6257;57.634;18.310;2024-01-10T11:49:25;2.20;99.90
12386;DHT22;6257;57.634;18.310;2024-01-10T11:51:54;2.20;99.90
12386;DHT22;6257;57.634;18.310;2024-01-10T11:54:39;2.20;99.90
12386;DHT22;6257;57.634;18.310;2024-01-10T11:57:16;2.20;99.90
12386;DHT22;6257;57.634;18.310;2024-01-10T11:59:50;2.10;99.90
12386;DHT22;6257;57.634;18.310;2024-01-10T12:02:18;2.20;99.90
12386;DHT22;6257;57.634;18.310;2024-01-10T12:04:45;2.20;99.90
12386;DHT22;6257;57.634;18.310;2024-01-10T12:07:12;2.20;99.90
12386;DHT22;6257;57.634;18.310;2024-01-10T12:09:40;2.30;99.90
12386;DHT22;6257;57.634;18.310;2024-01-10T12:12:07;2.30;99.90
12386;DHT22;6257;57.634;18.310;2024-01-10T12:14:34;2.30;99.90
12386;DHT22;6257;57.634;18.310;2024-01-10T12:17:05;2.20;99.90
12386;DHT22;6257;57.634;18.310;2024-01-10T12:19:34;2.20;99.90
12386;DHT22;6257;57.634;18.310;2024-01-10T12:22:03;2.20;99.90
12386;DHT22;6257;57.634;18.310;2024-01-10T12:24:31;2.20;99.90
12386;DHT22;6257;57.634;18.310;2024-01-10T12:26:58;2.20;99.90
12386;DHT22;6257;57.634;18.310;2024-01-10T12:29:26;2.20;99.90
12386;DHT22;6257;57.634;18.310;2024-01-10T12:31:53;2.20;99.90
12386;DHT22;6257;57.634;18.310;2024-01-10T12:34:21;2.20;99.90
12386;DHT22;6257;57.634;18.310;2024-01-10T12:36:49;2.20;99.90
12386;DHT22;6257;57.634;18.310;2024-01-10T12:39:16;2.10;99.90
12386;DHT22;6257;57.634;18.310;2024-01-10T12:41:43;2.20;99.90
12386;DHT22;6257;57.634;18.310;2024-01-10T12:44:11;2.20;99.90
12386;DHT22;6257;57.634;18.310;2024-01-10T12:46:50;2.20;99.90
12386;DHT22;6257;57.634;18.310;2024-01-10T12:49:18;2.20;99.90
12386;DHT22;6257;57.634;18.310;2024-01-10T12:51:47;2.30;99.90
12386;DHT22;6257;57.634;18.310;2024-01-10T12:54:15;2.30;99.90
12386;DHT22;6257;57.634;18.310;2024-01-10T12:56:42;2.20;99.90
12386;DHT22;6257;57.634;18.310;2024-01-10T12:59:09;2.20;99.90
12386;DHT22;6257;57.634;18.310;2024-01-10T13:01:36;2.20;99.90
12386;DHT22;6257;57.634;18.310;2024-01-10T13:04:04;2.20;99.90
12386;DHT22;6257;57.634;18.310;2024-01-10T13:06:31;2.20;99.90
12386;DHT22;6257;57.634;18.310;2024-01-10T13:08:59;3.20;99.90
12386;DHT22;6257;57.634;18.310;2024-01-10T13:11:26;2.20;99.90
12386;DHT22;6257;57.634;18.310;2024-01-10T13:13:55;2.10;99.90
12386;DHT22;6257;57.634;18.310;2024-01-10T13:16:22;2.10;99.90
12386;DHT22;6257;57.634;18.310;2024-01-10T13:18:49;2.00;99.90
12386;DHT22;6257;57.634;18.310;2024-01-10T13:21:19;2.10;99.90
12386;DHT22;6257;57.634;18.310;2024-01-10T13:23:46;2.10;99.90
12386;DHT22;6257;57.634;18.310;2024-01-10T13:26:15;2.10;99.90
12386;DHT22;6257;57.634;18.310;2024-01-10T13:28:42;2.00;99.90
12386;DHT22;6257;57.634;18.310;2024-01-10T13:31:09;2.00;99.90
12386;DHT22;6257;57.634;18.310;2024-01-10T13:33:37;1.90;99.90
12386;DHT22;6257;57.634;18.310;2024-01-10T13:36:04;1.90;99.90
12386;DHT22;6257;57.634;18.310;2024-01-10T13:38:31;1.80;99.90
12386;DHT22;6257;57.634;18.310;2024-01-10T13:40:59;1.70;99.90
12386;DHT22;6257;57.634;18.310;2024-01-10T13:43:28;1.80;99.90
12386;DHT22;6257;57.634;18.310;2024-01-10T13:45:55;1.80;99.90
12386;DHT22;6257;57.634;18.310;2024-01-10T13:48:22;1.70;99.90
12386;DHT22;6257;57.634;18.310;2024-01-10T13:50:49;1.70;99.90
12386;DHT22;6257;57.634;18.310;2024-01-10T13:53:16;1.70;99.90
12386;DHT22;6257;57.634;18.310;2024-01-10T13:55:43;1.70;99.90
12386;DHT22;6257;57.634;18.310;2024-01-10T13:58:12;1.70;99.90
12386;DHT22;6257;57.634;18.310;2024-01-10T14:03:08;1.70;99.90
12386;DHT22;6257;57.634;18.310;2024-01-10T14:05:35;1.60;99.90
12386;DHT22;6257;57.634;18.310;2024-01-10T14:08:02;1.50;99.90
12386;DHT22;6257;57.634;18.310;2024-01-10T14:10:30;1.50;99.90
12386;DHT22;6257;57.634;18.310;2024-01-10T14:12:57;1.40;99.90
12386;DHT22;6257;57.634;18.310;2024-01-10T14:15:24;1.40;99.90
12386;DHT22;6257;57.634;18.310;2024-01-10T14:17:52;1.40;99.90
12386;DHT22;6257;57.634;18.310;2024-01-10T14:20:19;1.40;99.90
12386;DHT22;6257;57.634;18.310;2024-01-10T14:22:47;1.40;99.90
12386;DHT22;6257;57.634;18.310;2024-01-10T14:25:16;1.50;99.90
12386;DHT22;6257;57.634;18.310;2024-01-10T14:27:43;1.50;99.90
12386;DHT22;6257;57.634;18.310;2024-01-10T14:30:10;1.50;99.90
12386;DHT22;6257;57.634;18.310;2024-01-10T14:32:38;1.50;99.90
12386;DHT22;6257;57.634;18.310;2024-01-10T14:35:07;1.40;99.90
12386;DHT22;6257;57.634;18.310;2024-01-10T14:37:34;2.20;99.90
12386;DHT22;6257;57.634;18.310;2024-01-10T14:40:03;1.50;99.90
12386;DHT22;6257;57.634;18.310;2024-01-10T14:42:32;1.50;99.90
12386;DHT22;6257;57.634;18.310;2024-01-10T14:44:59;1.50;99.90
12386;DHT22;6257;57.634;18.310;2024-01-10T14:47:27;1.50;99.90
12386;DHT22;6257;57.634;18.310;2024-01-10T14:49:54;1.50;99.90
12386;DHT22;6257;57.634;18.310;2024-01-10T14:52:25;1.50;99.90
12386;DHT22;6257;57.634;18.310;2024-01-10T14:54:52;1.40;99.90
12386;DHT22;6257;57.634;18.310;2024-01-10T14:57:19;1.40;99.90
12386;DHT22;6257;57.634;18.310;2024-01-10T14:59:47;1.50;99.90
12386;DHT22;6257;57.634;18.310;2024-01-10T15:02:15;1.40;99.90
12386;DHT22;6257;57.634;18.310;2024-01-10T15:04:44;1.40;99.90
12386;DHT22;6257;57.634;18.310;2024-01-10T15:07:11;1.40;99.90
12386;DHT22;6257;57.634;18.310;2024-01-10T15:09:42;1.40;99.90
12386;DHT22;6257;57.634;18.310;2024-01-10T15:12:09;1.40;99.90
12386;DHT22;6257;57.634;18.310;2024-01-10T15:14:36;1.40;99.90
12386;DHT22;6257;57.634;18.310;2024-01-10T15:17:04;1.40;99.90
12386;DHT22;6257;57.634;18.310;2024-01-10T15:19:33;1.40;99.90
12386;DHT22;6257;57.634;18.310;2024-01-10T15:22:01;1.40;99.90
12386;DHT22;6257;57.634;18.310;2024-01-10T15:24:28;1.30;99.90
12386;DHT22;6257;57.634;18.310;2024-01-10T15:26:57;1.40;99.90
12386;DHT22;6257;57.634;18.310;2024-01-10T15:29:27;1.30;99.90
12386;DHT22;6257;57.634;18.310;2024-01-10T15:31:54;1.30;99.90
12386;DHT22;6257;57.634;18.310;2024-01-10T15:34:21;1.30;99.90
12386;DHT22;6257;57.634;18.310;2024-01-10T15:36:50;1.30;99.90
12386;DHT22;6257;57.634;18.310;2024-01-10T15:39:17;1.30;99.90
12386;DHT22;6257;57.634;18.310;2024-01-10T15:41:45;1.30;99.90
12386;DHT22;6257;57.634;18.310;2024-01-10T15:44:14;1.30;99.90
12386;DHT22;6257;57.634;18.310;2024-01-10T15:46:41;1.30;99.90
12386;DHT22;6257;57.634;18.310;2024-01-10T15:49:08;1.20;99.90
12386;DHT22;6257;57.634;18.310;2024-01-10T15:51:35;1.30;99.90
12386;DHT22;6257;57.634;18.310;2024-01-10T15:54:02;1.30;99.90
12386;DHT22;6257;57.634;18.310;2024-01-10T15:56:29;1.20;99.90
12386;DHT22;6257;57.634;18.310;2024-01-10T15:58:57;1.20;99.90
12386;DHT22;6257;57.634;18.310;2024-01-10T16:01:25;1.20;99.90
12386;DHT22;6257;57.634;18.310;2024-01-10T16:03:52;1.20;99.90
12386;DHT22;6257;57.634;18.310;2024-01-10T16:06:19;1.20;99.90
12386;DHT22;6257;57.634;18.310;2024-01-10T16:08:47;1.20;99.90
12386;DHT22;6257;57.634;18.310;2024-01-10T16:11:14;1.30;99.90
12386;DHT22;6257;57.634;18.310;2024-01-10T16:13:41;1.30;99.90
12386;DHT22;6257;57.634;18.310;2024-01-10T16:16:08;1.40;99.90